Time;durP1;ratioP1;P1;durP2;ratioP2;P2;SDS_P1;SDS_P2;PMS_P1;PMS_P2;Temp;Humidity;BMP_temperature;BMP_pressure;BME280_temperature;BME280_humidity;BME280_pressure;Samples;Min_cycle;Max_cycle;Signal;HPM_P1;HPM_P2
2023/03/03 00:01:18;;;;;;;5.00;4.60;;;21.80;51.40;;;;;;4900427;29;20451;-91
2023/03/03 00:03:47;;;;;;;5.10;4.60;;;21.80;51.50;;;;;;4900093;29;20856;-93
2023/03/03 00:06:15;;;;;;;5.40;4.93;;;21.70;51.30;;;;;;4900208;29;20803;-92
2023/03/03 00:08:42;;;;;;;5.13;4.63;;;21.60;51.30;;;;;;4900260;29;20469;-90
2023/03/03 00:11:09;;;;;;;5.57;4.63;;;21.60;51.30;;;;;;4899965;29;20485;-90
2023/03/03 00:13:45;;;;;;;4.40;4.00;;;21.60;51.30;;;;;;4900260;29;20445;-94
2023/03/03 00:16:24;;;;;;;5.77;5.00;;;21.60;51.30;;;;;;4900439;29;20438;-90
2023/03/03 00:18:52;;;;;;;4.87;4.40;;;21.60;51.30;;;;;;4900031;29;20459;-94
2023/03/03 00:21:27;;;;;;;4.73;4.33;;;21.60;51.30;;;;;;4900060;29;20815;-92
2023/03/03 00:23:57;;;;;;;6.37;4.53;;;21.60;51.30;;;;;;4900031;29;20495;-95
2023/03/03 00:26:32;;;;;;;5.47;4.43;;;21.60;51.30;;;;;;4900207;29;20470;-91
2023/03/03 00:29:01;;;;;;;5.20;4.80;;;21.60;51.30;;;;;;4899588;29;20924;-92
2023/03/03 00:31:33;;;;;;;5.10;4.60;;;21.60;51.30;;;;;;4900023;29;20453;-92
2023/03/03 00:34:11;;;;;;;5.80;5.17;;;21.70;51.90;;;;;;4900612;29;20503;-91
2023/03/03 00:36:39;;;;;;;4.47;4.07;;;21.60;51.20;;;;;;4900676;29;20447;-90
2023/03/03 00:39:26;;;;;;;4.60;4.20;;;21.60;51.30;;;;;;4900318;29;20852;-96
2023/03/03 00:41:53;;;;;;;6.80;6.10;;;21.60;51.30;;;;;;4902245;29;20445;-92
2023/03/03 00:44:41;;;;;;;4.50;4.10;;;21.60;51.30;;;;;;4919477;29;20542;-90
2023/03/03 00:47:25;;;;;;;6.00;4.97;;;21.60;51.30;;;;;;4919442;29;20457;-90
2023/03/03 00:49:52;;;;;;;3.93;3.63;;;21.50;51.20;;;;;;4899413;29;20444;-95
2023/03/03 00:52:20;;;;;;;4.43;4.03;;;21.50;51.20;;;;;;4899065;29;20454;-95
2023/03/03 00:54:47;;;;;;;5.20;4.80;;;21.50;51.20;;;;;;4899308;29;20476;-93
2023/03/03 00:57:13;;;;;;;4.90;4.50;;;21.50;51.30;;;;;;4899035;29;20467;-91
2023/03/03 00:59:42;;;;;;;5.20;4.70;;;21.50;51.90;;;;;;4898824;29;20449;-95
2023/03/03 01:02:08;;;;;;;6.00;4.87;;;21.50;51.20;;;;;;4899144;29;20453;-95
2023/03/03 01:04:35;;;;;;;4.30;3.90;;;21.50;51.20;;;;;;4898784;29;20483;-95
2023/03/03 01:07:02;;;;;;;4.90;4.50;;;21.50;51.20;;;;;;4899272;29;20454;-90
2023/03/03 01:09:30;;;;;;;5.53;4.77;;;21.50;51.20;;;;;;4898970;29;20810;-96
2023/03/03 01:11:57;;;;;;;4.60;4.10;;;21.50;51.20;;;;;;4897868;29;20575;-95
2023/03/03 01:14:24;;;;;;;4.43;4.03;;;21.50;51.20;;;;;;4899966;29;20812;-96
2023/03/03 01:16:52;;;;;;;4.97;4.47;;;21.50;51.20;;;;;;4899059;29;20448;-93
2023/03/03 01:19:25;;;;;;;5.27;4.83;;;21.50;51.20;;;;;;4899732;29;20450;-95
2023/03/03 01:21:52;;;;;;;5.20;4.70;;;21.50;51.20;;;;;;4898978;29;20449;-92
2023/03/03 01:24:19;;;;;;;5.00;4.60;;;21.50;51.20;;;;;;4898596;29;20492;-95
2023/03/03 01:26:45;;;;;;;4.53;4.10;;;21.40;51.20;;;;;;4898772;29;20807;-95
2023/03/03 01:29:12;;;;;;;4.63;4.23;;;21.40;51.10;;;;;;4898504;29;20453;-94
2023/03/03 01:31:39;;;;;;;4.43;4.03;;;21.40;51.20;;;;;;4899035;29;20454;-95
2023/03/03 01:34:07;;;;;;;6.20;4.40;;;21.40;51.20;;;;;;4898801;29;20448;-95
2023/03/03 01:36:36;;;;;;;5.33;4.83;;;21.40;51.20;;;;;;4899494;29;21023;-90
2023/03/03 01:39:03;;;;;;;4.40;4.00;;;21.40;51.20;;;;;;4898584;29;20512;-93
2023/03/03 01:41:32;;;;;;;4.80;4.30;;;21.40;51.20;;;;;;4898791;29;20449;-96
2023/03/03 01:43:59;;;;;;;4.23;3.83;;;21.40;51.20;;;;;;4898808;29;20855;-92
2023/03/03 01:46:40;;;;;;;4.70;4.30;;;21.40;51.20;;;;;;4899008;29;20544;-91
2023/03/03 01:49:13;;;;;;;5.20;4.70;;;21.40;51.20;;;;;;4898701;29;20534;-90
2023/03/03 01:51:47;;;;;;;4.67;4.27;;;21.40;51.20;;;;;;4898759;29;20787;-91
2023/03/03 01:54:20;;;;;;;4.80;4.33;;;21.40;51.20;;;;;;4898388;29;20454;-91
2023/03/03 01:56:47;;;;;;;4.27;3.93;;;21.40;51.20;;;;;;4898318;29;20459;-90
2023/03/03 01:59:17;;;;;;;4.00;3.60;;;21.40;51.20;;;;;;4898841;29;20943;-94
2023/03/03 02:01:45;;;;;;;4.87;4.10;;;21.50;51.30;;;;;;4898303;29;20459;-94
2023/03/03 02:04:14;;;;;;;4.93;4.50;;;21.40;51.20;;;;;;4898579;29;20500;-91
2023/03/03 02:06:45;;;;;;;4.43;4.03;;;21.30;51.10;;;;;;4898307;29;20795;-90
2023/03/03 02:09:18;;;;;;;4.73;4.30;;;21.30;51.10;;;;;;4899312;29;20829;-91
2023/03/03 02:11:49;;;;;;;4.17;3.77;;;21.30;51.10;;;;;;4898700;29;20888;-91
2023/03/03 02:14:15;;;;;;;4.77;3.70;;;21.30;51.20;;;;;;4898872;29;20546;-90
2023/03/03 02:16:43;;;;;;;3.43;3.13;;;21.30;51.70;;;;;;4899071;29;20452;-91
2023/03/03 02:19:27;;;;;;;4.07;3.73;;;21.30;51.20;;;;;;4898611;29;20807;-90
2023/03/03 02:21:55;;;;;;;5.23;4.27;;;21.30;51.20;;;;;;4899098;29;20450;-95
2023/03/03 02:24:27;;;;;;;4.83;4.43;;;21.50;51.40;;;;;;4901652;29;20535;-91
2023/03/03 02:26:55;;;;;;;4.83;4.43;;;21.30;51.20;;;;;;4902118;29;20454;-90
2023/03/03 02:29:22;;;;;;;4.63;4.23;;;21.30;51.20;;;;;;4901789;29;20448;-90
2023/03/03 02:31:49;;;;;;;4.20;3.73;;;21.30;51.20;;;;;;4901887;29;20441;-91
2023/03/03 02:34:16;;;;;;;4.70;4.30;;;21.30;51.20;;;;;;4901930;29;21024;-95
2023/03/03 02:36:43;;;;;;;5.30;4.80;;;21.30;51.20;;;;;;4901858;29;20450;-90
2023/03/03 02:39:16;;;;;;;4.57;3.77;;;21.30;51.20;;;;;;4901631;29;20452;-95
2023/03/03 02:41:48;;;;;;;4.83;4.40;;;21.40;51.20;;;;;;4901725;29;20501;-95
2023/03/03 02:44:17;;;;;;;5.13;4.60;;;21.30;51.20;;;;;;4902373;29;20501;-91
2023/03/03 02:46:46;;;;;;;5.00;4.23;;;21.20;51.10;;;;;;4902369;29;20507;-90
2023/03/03 02:49:17;;;;;;;5.13;4.63;;;21.30;51.20;;;;;;4901389;29;20539;-91
2023/03/03 02:51:44;;;;;;;5.17;4.67;;;21.40;51.30;;;;;;4901731;29;20444;-91
2023/03/03 02:54:13;;;;;;;4.77;4.30;;;21.40;51.20;;;;;;4901526;29;20532;-91
2023/03/03 02:56:39;;;;;;;4.07;3.67;;;21.20;51.10;;;;;;4901243;29;20464;-91
2023/03/03 02:59:07;;;;;;;4.70;4.30;;;21.20;51.10;;;;;;4901571;29;20563;-91
2023/03/03 03:01:36;;;;;;;4.50;4.10;;;21.20;51.10;;;;;;4901988;29;20537;-93
2023/03/03 03:04:05;;;;;;;4.83;4.43;;;21.20;51.10;;;;;;4902074;29;20849;-91
2023/03/03 03:06:32;;;;;;;4.77;4.37;;;21.20;51.10;;;;;;4901998;29;20443;-91
2023/03/03 03:08:59;;;;;;;4.37;3.97;;;21.20;51.10;;;;;;4902261;29;20451;-91
2023/03/03 03:11:26;;;;;;;4.97;4.47;;;21.20;51.10;;;;;;4901892;29;21048;-91
2023/03/03 03:13:53;;;;;;;4.30;4.00;;;21.20;51.20;;;;;;4902344;29;20564;-94
2023/03/03 03:16:20;;;;;;;4.03;3.70;;;21.20;51.10;;;;;;4903988;29;20955;-91
2023/03/03 03:18:49;;;;;;;4.43;3.83;;;21.20;51.20;;;;;;4927771;29;20452;-91
2023/03/03 03:21:16;;;;;;;4.47;4.07;;;21.20;51.10;;;;;;4938654;29;20447;-91
2023/03/03 03:23:43;;;;;;;4.43;4.03;;;21.20;51.10;;;;;;4919354;29;21006;-91
2023/03/03 03:26:10;;;;;;;5.10;4.70;;;21.20;51.20;;;;;;4919461;29;21098;-91
2023/03/03 03:28:37;;;;;;;5.43;4.93;;;21.20;51.20;;;;;;4919521;29;20449;-91
2023/03/03 03:31:04;;;;;;;5.13;4.63;;;21.20;51.20;;;;;;4919383;29;20455;-90
2023/03/03 03:33:32;;;;;;;5.33;3.93;;;21.20;51.20;;;;;;4919009;29;20450;-92
2023/03/03 03:36:00;;;;;;;4.50;4.10;;;21.20;51.20;;;;;;4919715;29;20448;-94
2023/03/03 03:38:30;;;;;;;5.20;4.70;;;21.10;51.10;;;;;;4919238;29;20959;-95
2023/03/03 03:40:57;;;;;;;4.07;3.67;;;21.10;51.10;;;;;;4921239;29;20444;-91
2023/03/03 03:43:25;;;;;;;4.50;4.10;;;21.10;51.10;;;;;;4943499;29;20498;-91
2023/03/03 03:45:51;;;;;;;5.17;4.50;;;21.10;51.10;;;;;;4943324;29;20495;-91
2023/03/03 03:48:18;;;;;;;4.87;4.20;;;21.10;51.10;;;;;;4943389;29;20459;-91
2023/03/03 03:50:46;;;;;;;4.43;4.03;;;21.10;51.10;;;;;;4924335;29;20449;-91
2023/03/03 03:53:14;;;;;;;4.27;3.87;;;21.10;51.10;;;;;;4925948;29;20486;-91
2023/03/03 03:55:41;;;;;;;5.47;4.97;;;21.10;51.10;;;;;;4919591;29;20480;-93
2023/03/03 03:58:08;;;;;;;4.07;3.70;;;21.10;51.10;;;;;;4918855;29;20453;-91
2023/03/03 04:00:36;;;;;;;5.07;4.57;;;21.10;51.10;;;;;;4919259;29;20465;-91
2023/03/03 04:03:03;;;;;;;4.87;4.47;;;20.90;51.00;;;;;;4918803;29;20537;-90
2023/03/03 04:05:29;;;;;;;3.90;3.50;;;21.10;51.10;;;;;;4918396;29;20487;-91
2023/03/03 04:07:56;;;;;;;4.60;3.83;;;21.10;51.20;;;;;;4918378;29;20449;-91
2023/03/03 04:10:24;;;;;;;4.60;4.20;;;21.10;51.10;;;;;;4918203;29;20540;-95
2023/03/03 04:12:51;;;;;;;4.33;3.93;;;21.10;51.10;;;;;;4918584;29;20455;-91
2023/03/03 04:15:18;;;;;;;4.53;4.13;;;21.10;51.10;;;;;;4918428;29;20462;-91
2023/03/03 04:17:45;;;;;;;4.30;3.93;;;21.10;51.10;;;;;;4918884;29;20468;-91
2023/03/03 04:20:14;;;;;;;4.87;4.37;;;21.00;51.10;;;;;;4918145;29;20487;-91
2023/03/03 04:22:40;;;;;;;4.67;4.10;;;21.10;51.20;;;;;;4918461;29;20496;-95
2023/03/03 04:25:09;;;;;;;4.10;3.70;;;21.20;51.20;;;;;;4917886;29;20505;-91
2023/03/03 04:27:37;;;;;;;4.37;3.97;;;21.00;51.10;;;;;;4919029;29;20448;-95
2023/03/03 04:30:06;;;;;;;4.30;3.90;;;21.00;51.10;;;;;;4918079;29;20450;-94
2023/03/03 04:32:33;;;;;;;3.87;3.47;;;21.00;51.20;;;;;;4918176;29;20447;-91
2023/03/03 04:35:00;;;;;;;4.13;3.70;;;21.00;51.20;;;;;;4918115;29;20476;-90
2023/03/03 04:37:27;;;;;;;3.93;3.60;;;21.00;51.20;;;;;;4918592;29;20468;-90
2023/03/03 04:39:54;;;;;;;4.63;4.13;;;21.00;51.20;;;;;;4917985;29;20454;-94
2023/03/03 04:42:21;;;;;;;4.17;3.77;;;21.00;51.20;;;;;;4917661;29;20460;-96
2023/03/03 04:45:01;;;;;;;3.77;3.47;;;21.00;51.10;;;;;;4917827;29;20514;-95
2023/03/03 04:47:28;;;;;;;4.50;4.10;;;21.00;51.20;;;;;;4917031;29;20442;-90
2023/03/03 04:49:55;;;;;;;4.43;4.03;;;21.00;51.10;;;;;;4917843;29;20458;-90
2023/03/03 04:52:22;;;;;;;4.33;3.93;;;21.10;51.20;;;;;;4917710;29;20445;-90
2023/03/03 04:54:53;;;;;;;4.23;3.83;;;21.00;51.20;;;;;;4917554;29;20982;-95
2023/03/03 04:57:19;;;;;;;3.73;3.30;;;21.00;51.10;;;;;;4917633;29;20454;-95
2023/03/03 04:59:46;;;;;;;3.93;3.63;;;21.10;51.20;;;;;;4917601;29;20448;-95
2023/03/03 05:02:14;;;;;;;4.10;3.80;;;20.90;51.10;;;;;;4917434;29;20462;-95
2023/03/03 05:04:41;;;;;;;4.13;3.83;;;20.90;51.10;;;;;;4917785;29;20877;-93
2023/03/03 05:07:08;;;;;;;4.60;4.20;;;20.90;51.10;;;;;;4917728;29;20451;-95
2023/03/03 05:09:35;;;;;;;4.23;3.93;;;20.90;51.10;;;;;;4917458;29;20452;-95
2023/03/03 05:12:02;;;;;;;4.50;4.10;;;20.90;51.10;;;;;;4917016;29;20493;-95
2023/03/03 05:14:30;;;;;;;4.17;3.87;;;20.90;51.10;;;;;;4917350;29;20455;-96
2023/03/03 05:16:57;;;;;;;5.03;4.53;;;20.90;51.10;;;;;;4917311;29;20512;-95
2023/03/03 05:19:25;;;;;;;5.90;4.43;;;20.90;51.00;;;;;;4918926;29;20452;-96
2023/03/03 05:21:53;;;;;;;4.03;3.70;;;20.90;51.00;;;;;;4917377;29;21034;-93
2023/03/03 05:24:20;;;;;;;3.90;3.60;;;20.90;51.00;;;;;;4918256;29;20487;-95
2023/03/03 05:26:47;;;;;;;4.63;4.10;;;20.90;51.10;;;;;;4917269;29;20789;-95
2023/03/03 05:29:14;;;;;;;4.73;4.23;;;20.90;51.10;;;;;;4917217;29;20491;-95
2023/03/03 05:31:41;;;;;;;4.20;3.77;;;20.90;51.20;;;;;;4917472;29;20537;-95
2023/03/03 05:34:07;;;;;;;3.90;3.50;;;20.90;51.20;;;;;;4917160;29;20462;-95
2023/03/03 05:36:36;;;;;;;3.80;3.50;;;20.90;51.20;;;;;;4917495;29;20449;-92
2023/03/03 05:39:02;;;;;;;3.97;3.67;;;20.90;51.30;;;;;;4917386;29;20527;-93
2023/03/03 05:41:29;;;;;;;4.30;3.90;;;20.90;51.90;;;;;;4917110;29;20781;-94
2023/03/03 05:43:56;;;;;;;3.93;3.63;;;20.90;51.40;;;;;;4917351;29;20543;-93
2023/03/03 05:46:23;;;;;;;3.97;3.67;;;20.90;51.50;;;;;;4917400;29;20487;-94
2023/03/03 05:48:50;;;;;;;4.40;4.00;;;20.90;51.60;;;;;;4917733;29;20875;-91
2023/03/03 05:51:16;;;;;;;4.13;3.53;;;20.90;51.60;;;;;;4917322;29;20530;-91
2023/03/03 05:53:45;;;;;;;4.10;3.70;;;20.90;51.60;;;;;;4917579;29;20457;-93
2023/03/03 05:56:11;;;;;;;3.90;3.60;;;20.90;51.70;;;;;;4916988;29;20558;-92
2023/03/03 05:58:38;;;;;;;3.83;3.53;;;20.90;51.70;;;;;;4920166;29;20554;-92
2023/03/03 06:01:05;;;;;;;6.87;3.97;;;20.90;51.70;;;;;;4920771;29;20541;-91
2023/03/03 06:03:32;;;;;;;3.90;3.50;;;20.90;51.80;;;;;;4920935;29;20538;-92
2023/03/03 06:05:59;;;;;;;6.47;3.83;;;20.70;51.60;;;;;;4921483;29;20805;-92
2023/03/03 06:08:26;;;;;;;4.33;3.93;;;20.90;51.80;;;;;;4921025;29;20458;-91
2023/03/03 06:10:54;;;;;;;4.00;3.57;;;20.90;51.90;;;;;;4921164;29;20479;-93
2023/03/03 06:13:21;;;;;;;3.93;3.57;;;21.00;51.90;;;;;;4920791;29;20866;-93
2023/03/03 06:15:48;;;;;;;5.97;4.30;;;20.90;51.80;;;;;;4920405;29;20540;-92
2023/03/03 06:18:15;;;;;;;4.13;3.73;;;20.90;51.70;;;;;;4920618;29;20454;-94
2023/03/03 06:20:41;;;;;;;4.80;4.40;;;21.00;51.90;;;;;;4920986;29;20514;-93
2023/03/03 06:23:08;;;;;;;3.87;3.53;;;21.00;51.90;;;;;;4920193;29;20949;-92
2023/03/03 06:25:36;;;;;;;4.33;3.73;;;20.90;51.90;;;;;;4920322;29;20575;-92
2023/03/03 06:28:04;;;;;;;3.57;3.27;;;21.00;51.90;;;;;;4920296;29;20452;-91
2023/03/03 06:30:31;;;;;;;4.50;4.10;;;20.90;51.90;;;;;;4920332;29;20460;-91
2023/03/03 06:32:57;;;;;;;3.60;3.30;;;20.80;51.80;;;;;;4919856;29;20453;-91
2023/03/03 06:35:24;;;;;;;3.60;3.20;;;20.90;52.80;;;;;;4920375;29;20455;-90
2023/03/03 06:37:51;;;;;;;4.60;4.20;;;20.90;52.20;;;;;;4919895;29;20572;-93
2023/03/03 06:40:18;;;;;;;3.90;3.60;;;20.90;52.30;;;;;;4920501;29;20458;-91
2023/03/03 06:42:45;;;;;;;4.37;3.97;;;20.90;52.30;;;;;;4920313;29;20472;-95
2023/03/03 06:45:14;;;;;;;3.70;3.30;;;20.90;52.20;;;;;;4921234;29;20487;-96
2023/03/03 06:47:41;;;;;;;4.80;4.27;;;20.90;52.20;;;;;;4921521;29;20455;-95
2023/03/03 06:50:11;;;;;;;4.37;4.00;;;21.00;52.30;;;;;;4921234;29;20449;-96
2023/03/03 06:52:38;;;;;;;4.40;4.00;;;20.90;52.20;;;;;;4921501;29;20926;-96
2023/03/03 06:55:13;;;;;;;3.73;3.40;;;20.90;52.20;;;;;;4921538;29;20481;-96
2023/03/03 06:57:41;;;;;;;5.13;3.20;;;20.90;52.30;;;;;;4921469;29;20928;-96
2023/03/03 07:00:25;;;;;;;3.93;3.53;;;20.80;52.20;;;;;;4920837;29;20543;-96
2023/03/03 07:03:08;;;;;;;4.77;3.97;;;20.90;52.40;;;;;;4920552;29;20435;-96
2023/03/03 07:05:40;;;;;;;4.40;4.00;;;20.80;52.30;;;;;;4921631;29;20530;-96
2023/03/03 07:08:13;;;;;;;5.47;4.17;;;20.80;52.20;;;;;;4921047;29;20444;-96
2023/03/03 07:10:40;;;;;;;3.43;3.13;;;21.00;53.00;;;;;;4920390;29;20472;-95
2023/03/03 07:13:20;;;;;;;3.90;3.50;;;20.80;52.20;;;;;;4921456;29;20539;-95
2023/03/03 07:15:50;;;;;;;5.43;4.40;;;20.80;52.30;;;;;;4921558;29;20432;-95
2023/03/03 07:18:35;;;;;;;4.30;3.90;;;20.80;52.30;;;;;;4921612;29;20556;-96
2023/03/03 07:21:14;;;;;;;4.23;3.87;;;20.80;52.30;;;;;;4922149;29;21032;-96
2023/03/03 07:23:42;;;;;;;4.00;3.57;;;20.80;52.30;;;;;;4920564;29;20511;-95
2023/03/03 07:26:12;;;;;;;3.70;3.37;;;20.80;52.30;;;;;;4920686;29;21025;-95
2023/03/03 07:28:41;;;;;;;4.10;3.70;;;20.80;52.30;;;;;;4919609;29;20483;-96
2023/03/03 07:31:32;;;;;;;5.10;3.73;;;20.80;52.20;;;;;;4920891;29;20460;-95
2023/03/03 07:34:01;;;;;;;4.17;3.77;;;20.80;52.20;;;;;;4919945;29;20436;-94
2023/03/03 07:36:30;;;;;;;4.77;3.93;;;20.80;52.20;;;;;;4920585;29;20560;-95
2023/03/03 07:39:00;;;;;;;5.40;4.60;;;20.80;52.20;;;;;;4920707;29;20455;-95
2023/03/03 07:41:29;;;;;;;4.13;3.13;;;20.90;52.30;;;;;;4920623;29;20498;-95
2023/03/03 07:44:03;;;;;;;4.60;4.10;;;20.70;52.10;;;;;;4921855;29;20456;-96
2023/03/03 07:46:41;;;;;;;4.03;3.47;;;20.70;52.20;;;;;;4920507;29;20572;-96
2023/03/03 07:49:24;;;;;;;4.30;3.90;;;20.70;52.20;;;;;;4921104;29;20841;-96
2023/03/03 07:51:56;;;;;;;5.00;4.50;;;20.70;52.20;;;;;;4920868;29;20450;-95
2023/03/03 07:54:36;;;;;;;3.97;3.60;;;20.70;52.10;;;;;;4920543;29;20833;-96
2023/03/03 07:57:14;;;;;;;8.40;3.63;;;20.70;52.20;;;;;;4920000;29;20455;-95
2023/03/03 07:59:47;;;;;;;4.60;3.97;;;20.70;52.20;;;;;;4919930;29;20476;-95
2023/03/03 08:02:36;;;;;;;6.53;3.57;;;20.70;52.10;;;;;;4918692;29;20995;-95
2023/03/03 08:05:27;;;;;;;4.13;3.70;;;20.70;52.10;;;;;;4918836;29;20899;-95
2023/03/03 08:07:55;;;;;;;4.37;3.93;;;20.70;52.20;;;;;;4920205;29;20539;-95
2023/03/03 08:10:36;;;;;;;4.20;3.43;;;20.70;52.10;;;;;;4918977;29;20444;-95
2023/03/03 08:13:16;;;;;;;5.70;3.77;;;20.50;52.00;;;;;;4919078;29;20946;-96
2023/03/03 08:15:45;;;;;;;4.13;3.53;;;20.70;52.20;;;;;;4920114;29;20506;-95
2023/03/03 08:18:29;;;;;;;4.87;4.10;;;20.60;52.00;;;;;;4919692;29;20449;-95
2023/03/03 08:20:58;;;;;;;5.87;4.20;;;20.70;52.10;;;;;;4919423;29;20424;-95
2023/03/03 08:23:26;;;;;;;4.40;3.77;;;20.70;52.00;;;;;;4918940;29;20452;-96
2023/03/03 08:25:53;;;;;;;5.37;3.97;;;20.60;52.00;;;;;;4918547;29;20546;-96
2023/03/03 08:28:21;;;;;;;5.27;3.57;;;20.60;51.90;;;;;;4919002;29;20519;-95
2023/03/03 08:30:49;;;;;;;4.53;3.70;;;20.50;51.90;;;;;;4918767;29;20457;-96
2023/03/03 08:33:18;;;;;;;4.30;3.90;;;20.60;51.90;;;;;;4918473;29;20535;-95
2023/03/03 08:35:48;;;;;;;4.27;3.87;;;20.70;52.00;;;;;;4919074;29;20468;-95
2023/03/03 08:38:18;;;;;;;4.43;4.03;;;20.60;51.90;;;;;;4918785;29;20945;-96
2023/03/03 08:40:45;;;;;;;5.33;4.60;;;20.50;51.80;;;;;;4918564;29;20482;-96
2023/03/03 08:43:16;;;;;;;4.10;3.70;;;20.60;51.90;;;;;;4918350;29;20507;-96
2023/03/03 08:45:44;;;;;;;3.27;2.97;;;20.60;51.80;;;;;;4919729;29;20471;-96
2023/03/03 08:48:11;;;;;;;3.90;3.27;;;20.70;51.90;;;;;;4919314;29;20555;-96
2023/03/03 08:50:40;;;;;;;4.50;4.10;;;20.60;51.80;;;;;;4918359;29;20882;-96
2023/03/03 08:53:07;;;;;;;3.93;3.53;;;20.60;51.80;;;;;;4918517;29;20449;-95
2023/03/03 08:55:34;;;;;;;4.10;3.70;;;20.60;51.80;;;;;;4919369;29;20480;-95
2023/03/03 08:58:01;;;;;;;4.67;4.20;;;20.60;51.80;;;;;;4918492;29;20523;-95
2023/03/03 09:00:28;;;;;;;4.53;3.50;;;20.60;51.80;;;;;;4918254;29;20451;-95
2023/03/03 09:02:56;;;;;;;3.97;3.57;;;20.60;51.90;;;;;;4918281;29;20877;-95
2023/03/03 09:05:24;;;;;;;3.83;3.30;;;20.60;51.90;;;;;;4917943;29;20538;-95
2023/03/03 09:07:53;;;;;;;3.87;3.40;;;20.80;52.00;;;;;;4918472;29;20479;-96
2023/03/03 09:10:26;;;;;;;4.80;4.40;;;20.60;51.90;;;;;;4918601;29;20460;-94
2023/03/03 09:12:57;;;;;;;4.30;3.57;;;20.60;51.90;;;;;;4918656;29;21058;-96
2023/03/03 09:15:25;;;;;;;4.50;3.60;;;20.60;51.80;;;;;;4919914;29;20547;-96
2023/03/03 09:17:53;;;;;;;3.70;3.40;;;20.60;51.80;;;;;;4919099;29;20451;-96
2023/03/03 09:20:39;;;;;;;4.57;3.20;;;20.80;52.10;;;;;;4919023;29;20459;-96
2023/03/03 09:23:37;;;;;;;4.60;2.90;;;20.60;51.90;;;;;;4919673;29;20456;-96
2023/03/03 09:26:27;;;;;;;5.00;3.83;;;20.60;51.90;;;;;;4843186;29;20492;-96
2023/03/03 09:28:55;;;;;;;5.57;3.60;;;20.60;51.90;;;;;;4913404;29;20542;-95
2023/03/03 09:31:26;;;;;;;3.67;3.30;;;20.60;51.90;;;;;;4918651;29;20449;-96
2023/03/03 09:33:56;;;;;;;4.83;3.50;;;20.60;51.90;;;;;;4922949;29;20478;-95
2023/03/03 09:36:26;;;;;;;3.33;3.03;;;20.40;51.70;;;;;;4923473;29;20452;-96
2023/03/03 09:38:56;;;;;;;4.40;4.00;;;20.60;51.90;;;;;;4922614;29;20447;-95
2023/03/03 09:41:37;;;;;;;4.20;3.80;;;20.60;51.90;;;;;;4922224;29;20451;-96
2023/03/03 09:44:29;;;;;;;5.90;4.57;;;20.60;51.90;;;;;;4922905;29;20860;-96
2023/03/03 09:47:13;;;;;;;3.93;3.47;;;20.60;51.90;;;;;;4922179;29;20511;-96
2023/03/03 09:49:54;;;;;;;3.37;3.07;;;20.60;51.80;;;;;;4922923;29;20851;-95
2023/03/03 09:52:33;;;;;;;5.77;3.57;;;20.60;51.80;;;;;;4922826;29;20454;-96
2023/03/03 09:55:23;;;;;;;3.60;3.30;;;20.60;51.80;;;;;;4922372;29;20502;-95
2023/03/03 09:58:22;;;;;;;4.83;3.50;;;20.60;51.80;;;;;;4922124;29;20451;-96
2023/03/03 10:00:57;;;;;;;4.37;3.60;;;20.60;51.80;;;;;;4922257;29;20437;-95
2023/03/03 10:04:12;;;;;;;4.23;3.10;;;20.60;51.80;;;;;;4921684;29;20439;-95
2023/03/03 10:06:43;;;;;;;3.60;3.30;;;20.60;51.80;;;;;;4845109;29;21017;-96
2023/03/03 10:09:39;;;;;;;3.20;2.90;;;20.60;51.80;;;;;;4905668;29;20939;-96
2023/03/03 10:12:15;;;;;;;3.50;3.10;;;20.60;51.70;;;;;;4921228;29;20515;-96
2023/03/03 10:15:01;;;;;;;3.40;3.10;;;20.70;52.50;;;;;;4921440;29;20888;-95
2023/03/03 10:17:41;;;;;;;3.60;3.30;;;20.60;51.80;;;;;;4921937;29;20949;-96
2023/03/03 10:20:25;;;;;;;3.77;3.47;;;20.60;51.80;;;;;;4922871;29;20452;-96
2023/03/03 10:22:54;;;;;;;3.87;3.10;;;20.60;51.70;;;;;;4921540;29;20455;-96
2023/03/03 10:25:28;;;;;;;4.67;3.20;;;20.60;51.70;;;;;;4920801;29;20566;-95
2023/03/03 10:28:13;;;;;;;4.00;3.70;;;20.60;51.70;;;;;;4921309;29;20424;-96
2023/03/03 10:30:52;;;;;;;4.03;3.70;;;20.60;51.70;;;;;;4920828;29;20511;-96
2023/03/03 10:33:25;;;;;;;3.53;3.20;;;20.40;51.60;;;;;;4920958;29;20462;-96
2023/03/03 10:36:18;;;;;;;3.70;3.40;;;20.60;51.70;;;;;;4922116;29;20425;-96
2023/03/03 10:38:54;;;;;;;4.33;3.93;;;20.60;51.70;;;;;;4920936;29;20462;-95
2023/03/03 10:41:52;;;;;;;4.37;3.27;;;20.60;51.60;;;;;;4920631;29;20523;-95
2023/03/03 10:44:41;;;;;;;4.27;3.80;;;20.60;51.70;;;;;;4920822;29;20476;-95
2023/03/03 10:47:41;;;;;;;3.30;3.00;;;20.60;51.60;;;;;;4921195;29;20486;-96
2023/03/03 10:50:16;;;;;;;3.37;3.10;;;20.60;51.60;;;;;;4914959;29;20472;-95
2023/03/03 10:52:48;;;;;;;4.23;3.83;;;20.60;51.60;;;;;;4921087;29;20478;-95
2023/03/03 10:55:37;;;;;;;3.27;2.97;;;20.60;52.20;;;;;;4920425;29;21024;-95
2023/03/03 10:58:34;;;;;;;3.83;3.40;;;20.60;51.60;;;;;;4920534;29;20459;-95
2023/03/03 11:01:12;;;;;;;3.67;3.37;;;20.80;51.80;;;;;;4917596;29;20448;-94
2023/03/03 11:03:55;;;;;;;3.40;3.10;;;20.60;51.70;;;;;;4921214;29;20802;-95
2023/03/03 11:06:26;;;;;;;3.80;3.23;;;20.60;51.60;;;;;;4919788;29;20522;-95
2023/03/03 11:08:59;;;;;;;3.77;3.40;;;20.60;51.70;;;;;;4920697;29;20519;-95
2023/03/03 11:11:37;;;;;;;3.00;2.70;;;20.80;51.80;;;;;;4919884;29;21089;-95
2023/03/03 11:14:12;;;;;;;3.57;3.27;;;20.60;51.70;;;;;;4920462;29;20456;-96
2023/03/03 11:16:53;;;;;;;3.50;3.20;;;20.60;51.60;;;;;;4921460;29;21002;-95
2023/03/03 11:19:51;;;;;;;3.40;3.07;;;20.60;51.70;;;;;;4921536;29;20516;-96
2023/03/03 11:22:32;;;;;;;3.50;3.20;;;20.60;51.70;;;;;;4921100;29;20791;-96
2023/03/03 11:25:13;;;;;;;3.27;2.97;;;20.60;51.70;;;;;;4921220;29;20543;-94
2023/03/03 11:28:08;;;;;;;3.57;3.23;;;20.60;51.70;;;;;;4920167;29;20487;-96
2023/03/03 11:30:45;;;;;;;3.50;3.20;;;20.60;51.70;;;;;;4907123;29;20470;-95
2023/03/03 11:33:20;;;;;;;3.27;2.97;;;20.60;51.70;;;;;;4920422;29;20487;-95
2023/03/03 11:36:09;;;;;;;3.83;3.40;;;20.80;51.80;;;;;;4920076;29;20447;-94
2023/03/03 11:38:58;;;;;;;4.43;3.30;;;20.40;51.50;;;;;;4919442;29;20450;-94
2023/03/03 11:41:32;;;;;;;3.33;2.70;;;20.60;51.70;;;;;;4920528;29;20484;-95
2023/03/03 11:44:11;;;;;;;4.23;3.40;;;20.60;51.70;;;;;;4919922;29;20544;-95
2023/03/03 11:46:44;;;;;;;6.77;3.23;;;20.60;51.70;;;;;;4920968;29;20967;-94
2023/03/03 11:49:21;;;;;;;4.40;4.00;;;20.60;51.70;;;;;;4919620;29;20758;-94
2023/03/03 11:51:57;;;;;;;3.70;3.40;;;20.60;51.60;;;;;;4920005;29;20443;-94
2023/03/03 11:54:31;;;;;;;4.27;3.83;;;20.60;51.70;;;;;;4920069;29;20483;-95
2023/03/03 11:57:09;;;;;;;4.07;3.67;;;20.60;51.80;;;;;;4918932;29;20468;-95
2023/03/03 11:59:47;;;;;;;3.97;3.67;;;20.80;51.90;;;;;;4919718;29;20784;-95
2023/03/03 12:02:50;;;;;;;3.70;3.40;;;20.60;51.60;;;;;;4919386;29;20535;-94
2023/03/03 12:05:30;;;;;;;4.20;3.60;;;20.60;51.60;;;;;;4919149;29;20446;-94
2023/03/03 12:08:03;;;;;;;3.73;3.43;;;20.60;51.60;;;;;;4919315;29;20571;-94
2023/03/03 12:10:34;;;;;;;3.53;3.23;;;20.60;51.60;;;;;;4919048;29;20531;-95
2023/03/03 12:13:06;;;;;;;4.70;3.80;;;20.60;51.60;;;;;;4919027;29;20458;-95
2023/03/03 12:15:40;;;;;;;4.23;3.57;;;20.60;51.60;;;;;;4919749;29;20491;-95
2023/03/03 12:18:19;;;;;;;3.83;3.37;;;20.60;51.60;;;;;;4919464;29;20868;-95
2023/03/03 12:20:56;;;;;;;4.13;3.73;;;20.60;51.60;;;;;;4919006;29;20522;-95
2023/03/03 12:23:46;;;;;;;4.00;3.60;;;20.60;51.60;;;;;;4918767;29;20919;-85
2023/03/03 12:26:19;;;;;;;3.90;3.47;;;20.60;51.50;;;;;;4918694;29;20543;-95
2023/03/03 12:28:52;;;;;;;3.93;3.60;;;20.60;51.50;;;;;;4918329;29;20487;-95
2023/03/03 12:31:35;;;;;;;4.33;3.70;;;20.70;51.50;;;;;;4918960;29;20449;-94
2023/03/03 12:34:11;;;;;;;7.83;6.53;;;20.60;51.50;;;;;;4918850;29;20460;-84
2023/03/03 12:36:55;;;;;;;6.50;4.70;;;20.50;50.10;;;;;;4918272;29;20455;-86
